createdAt,value
2018-01-23T00:00:48.339Z,12.9
2018-01-23T00:01:48.183Z,12.8
2018-01-23T00:02:48.215Z,12.5
2018-01-23T00:03:48.193Z,13
2018-01-23T00:04:48.045Z,12.6
2018-01-23T00:05:48.047Z,12.4
2018-01-23T00:06:48.070Z,12.9
2018-01-23T01:10:12.940Z,13.1
2018-01-23T01:11:12.713Z,12.7
2018-01-23T01:12:12.702Z,12.7
2018-01-23T01:13:12.661Z,13.1
2018-01-23T01:14:12.488Z,12.9
2018-01-23T01:15:12.555Z,13.1
2018-01-23T01:16:12.466Z,13
2018-01-23T01:17:12.363Z,13.1
2018-01-23T01:18:12.309Z,12.8
2018-01-23T01:19:12.269Z,13
2018-01-23T01:20:12.101Z,13
2018-01-23T01:21:12.060Z,13
2018-01-23T01:22:11.990Z,12.4
2018-01-23T01:23:11.957Z,12.8
2018-01-23T01:24:12.088Z,12.5
2018-01-23T01:25:11.739Z,12.5
2018-01-23T01:26:11.748Z,13.1
2018-01-23T01:27:11.776Z,13.1
2018-01-23T01:28:11.526Z,12.6
2018-01-23T01:29:11.533Z,12.8
2018-01-23T01:30:11.511Z,13.1
2018-01-23T01:31:11.386Z,12.7
2018-01-23T01:32:11.308Z,12.9
2018-01-23T01:33:11.217Z,12.5
2018-01-23T01:34:11.089Z,12.9
2018-01-23T01:35:11.196Z,13.2
2018-01-23T01:36:10.977Z,13
2018-01-23T01:37:10.898Z,12.6
2018-01-23T01:38:10.921Z,12.7
2018-01-23T01:39:10.733Z,13
2018-01-23T01:40:10.790Z,13.2
2018-01-23T01:41:10.910Z,12.6
2018-01-23T01:42:10.590Z,12.5
2018-01-23T01:43:10.637Z,13.2
2018-01-23T01:44:10.338Z,12.9
2018-01-23T01:45:10.562Z,12.4
2018-01-23T01:46:10.319Z,12.4
2018-01-23T01:47:10.359Z,13.1
2018-01-23T01:48:10.080Z,12.9
2018-01-23T01:49:10.024Z,12.9
2018-01-23T01:50:09.979Z,13
2018-01-23T01:51:10.011Z,12.5
2018-01-23T01:52:09.873Z,13.1
2018-01-23T01:53:09.897Z,12.6
2018-01-23T01:54:09.661Z,13
2018-01-23T01:55:09.606Z,13
2018-01-23T01:56:09.608Z,12.5
2018-01-23T01:57:09.516Z,12.8
2018-01-23T01:58:09.567Z,12.7
2018-01-23T01:59:09.387Z,13
2018-01-23T02:00:09.503Z,12.9
2018-01-23T02:01:09.467Z,12.6
2018-01-23T02:02:09.263Z,12.5
2018-01-23T02:03:08.997Z,12.7
2018-01-23T02:04:09.023Z,12.5
2018-01-23T02:05:08.839Z,12.9
2018-01-23T02:06:08.904Z,12.7
2018-01-23T02:07:08.981Z,13
2018-01-23T02:08:08.818Z,12.9
2018-01-23T02:09:08.539Z,12.9
2018-01-23T02:10:08.575Z,12.6
2018-01-23T02:11:08.406Z,12.9
2018-01-23T02:12:08.311Z,12.6
2018-01-23T02:13:08.430Z,12.7
2018-01-23T02:14:08.222Z,13
2018-01-23T02:15:08.157Z,12.8
2018-01-23T02:16:08.060Z,12.7
2018-01-23T02:17:08.034Z,12.8
2018-01-23T02:18:07.849Z,13.1
2018-01-23T02:19:07.961Z,12.6
2018-01-23T02:20:07.762Z,12.6
2018-01-23T02:21:07.581Z,12.8
2018-01-23T02:22:07.647Z,12.9
2018-01-23T02:23:07.468Z,12.5
2018-01-23T02:24:07.455Z,12.5
2018-01-23T02:25:07.590Z,12.5
2018-01-23T02:26:07.313Z,13.1
2018-01-23T02:27:07.257Z,12.8
2018-01-23T02:28:07.054Z,12.9
2018-01-23T02:29:07.171Z,13.1
2018-01-23T02:30:06.928Z,12.6
2018-01-23T02:31:06.803Z,13.2
2018-01-23T02:32:06.823Z,12.9
2018-01-23T02:33:06.774Z,12.5
2018-01-23T02:34:06.822Z,12.5
2018-01-23T02:35:06.636Z,12.7
2018-01-23T02:36:06.411Z,13.1
2018-01-23T02:37:06.547Z,12.6
2018-01-23T02:38:06.655Z,13
2018-01-23T02:39:06.324Z,13
2018-01-23T02:40:06.110Z,12.6
2018-01-23T02:41:06.330Z,13.1
2018-01-23T02:42:06.222Z,13.1
2018-01-23T02:43:06.002Z,12.7
2018-01-23T02:44:05.802Z,13
2018-01-23T03:43:36.126Z,12.6
2018-01-23T03:44:35.820Z,12.5
2018-01-23T03:45:36.039Z,12.6
2018-01-23T03:46:35.681Z,12.6
2018-01-23T03:47:35.635Z,12.4
2018-01-23T03:48:35.655Z,12.6
2018-01-23T03:49:35.539Z,12.9
2018-01-23T03:50:35.318Z,12.5
2018-01-23T03:51:35.388Z,13
2018-01-23T03:52:35.272Z,13.2
2018-01-23T03:53:35.327Z,13.2
2018-01-23T03:54:35.212Z,13.2
2018-01-23T03:55:35.066Z,12.5
2018-01-23T03:56:35.228Z,12.8
2018-01-23T03:57:34.916Z,12.6
2018-01-23T03:58:35.289Z,12.5
2018-01-23T03:59:34.753Z,12.9
2018-01-23T04:00:34.546Z,13
2018-01-23T04:01:34.485Z,13.2
2018-01-23T04:02:34.583Z,13.1
2018-01-23T04:03:34.337Z,13.2
2018-01-23T04:04:34.516Z,13.1
2018-01-23T04:05:34.264Z,12.9
2018-01-23T04:06:34.218Z,13
2018-01-23T04:07:34.261Z,13.1
2018-01-23T04:08:33.948Z,12.7
2018-01-23T04:09:33.818Z,12.5
2018-01-23T04:10:33.781Z,13.1
2018-01-23T04:11:33.779Z,12.9
2018-01-23T04:12:33.728Z,13
2018-01-23T04:13:33.655Z,13.1
2018-01-23T04:14:33.609Z,12.7
2018-01-23T04:15:33.399Z,12.7
2018-01-23T04:16:33.358Z,12.7
2018-01-23T04:17:33.232Z,13.1
2018-01-23T04:18:33.232Z,13
2018-01-23T04:19:33.085Z,13.1
2018-01-23T04:20:32.975Z,12.6
2018-01-23T04:21:33.190Z,12.7
2018-01-23T04:22:32.947Z,12.6
2018-01-23T04:23:32.837Z,13
2018-01-23T04:24:32.956Z,13
2018-01-23T04:25:32.652Z,12.7
2018-01-23T04:26:32.764Z,13
2018-01-23T04:27:32.458Z,12.9
2018-01-23T04:28:32.458Z,12.6
2018-01-23T04:29:32.480Z,13.1
2018-01-23T04:30:32.509Z,12.7
2018-01-23T04:31:32.098Z,12.6
2018-01-23T04:32:32.285Z,12.4
2018-01-23T04:33:32.153Z,12.5
2018-01-23T04:34:32.001Z,13.2
2018-01-23T04:35:31.866Z,12.8
2018-01-23T04:36:31.838Z,12.6
2018-01-23T04:37:31.764Z,13.2
2018-01-23T04:38:31.661Z,12.5
2018-01-23T04:39:31.616Z,12.9
2018-01-23T04:40:31.652Z,13
2018-01-23T04:41:31.400Z,12.9
2018-01-23T04:42:31.407Z,12.5
2018-01-23T04:43:31.275Z,13
2018-01-23T04:44:31.229Z,12.6
2018-01-23T04:45:31.041Z,12.9
2018-01-23T04:46:30.923Z,13
2018-01-23T04:47:31.159Z,13.1
2018-01-23T04:48:30.822Z,13.2
2018-01-23T04:49:30.776Z,13.1
2018-01-23T04:50:30.644Z,12.8
2018-01-23T04:51:30.620Z,12.7
2018-01-23T04:52:30.748Z,13
2018-01-23T04:53:30.579Z,13.2
2018-01-23T04:54:30.485Z,12.8
2018-01-23T04:55:30.545Z,12.8
2018-01-23T04:56:30.215Z,12.5
2018-01-23T04:57:30.349Z,13.2
2018-01-23T04:58:30.372Z,12.9
2018-01-23T04:59:30.063Z,12.9
2018-01-23T05:00:30.067Z,13.1
2018-01-23T05:01:29.958Z,12.5
2018-01-23T05:02:29.997Z,13.1
2018-01-23T05:03:30.043Z,12.7
2018-01-23T05:04:29.807Z,12.4
2018-01-23T05:05:29.597Z,12.8
2018-01-23T05:06:29.545Z,12.9
2018-01-23T05:07:29.572Z,13.1
2018-01-23T05:08:29.418Z,13.1
2018-01-23T05:09:29.536Z,13.2
2018-01-23T05:10:29.245Z,12.6
2018-01-23T05:11:29.408Z,13.1
2018-01-23T05:12:29.345Z,13.2
2018-01-23T05:13:29.073Z,13.1
2018-01-23T05:14:28.951Z,12.9
2018-01-23T05:15:28.926Z,12.9
2018-01-23T05:16:29.206Z,13.2
2018-01-23T05:17:28.875Z,12.6
2018-01-23T05:18:28.730Z,12.6
2018-01-23T05:19:28.607Z,13
2018-01-23T05:20:28.675Z,13.2
2018-01-23T05:21:28.662Z,13
2018-01-23T05:22:28.459Z,13.2
2018-01-23T05:23:28.465Z,13.2
2018-01-23T05:24:28.275Z,12.8
2018-01-23T05:25:28.284Z,12.7
2018-01-23T05:26:28.282Z,12.9
2018-01-23T05:27:28.439Z,12.9
2018-01-23T05:28:28.304Z,13
2018-01-23T05:29:27.902Z,12.5
2018-01-23T05:30:27.965Z,13
2018-01-23T05:31:27.727Z,12.7
2018-01-23T05:32:27.846Z,13.2
2018-01-23T05:33:27.753Z,12.7
2018-01-23T05:34:27.548Z,12.6
2018-01-23T05:35:27.609Z,12.4
2018-01-23T05:36:27.375Z,12.6
2018-01-23T05:37:27.393Z,12.7
2018-01-23T05:38:27.368Z,12.8
2018-01-23T05:39:27.220Z,12.9
2018-01-23T05:40:27.205Z,13.1
2018-01-23T05:41:27.139Z,12.9
2018-01-23T05:42:27.090Z,12.9
2018-01-23T05:43:27.080Z,12.8
2018-01-23T05:44:27.047Z,12.7
2018-01-23T05:45:26.710Z,12.8
2018-01-23T05:46:26.664Z,12.4
2018-01-23T05:47:26.850Z,12.9
2018-01-23T05:48:26.715Z,13.1
2018-01-23T05:49:26.531Z,13.2
2018-01-23T05:50:26.490Z,13
2018-01-23T05:51:26.416Z,13.2
2018-01-23T05:52:26.312Z,12.5
2018-01-23T05:53:26.191Z,12.6
2018-01-23T05:54:26.152Z,12.7
2018-01-23T05:55:26.035Z,12.9
2018-01-23T05:56:25.860Z,12.4
2018-01-23T05:57:25.911Z,13.1
2018-01-23T05:58:25.798Z,12.6
2018-01-23T05:59:25.645Z,13.2
2018-01-23T06:00:25.614Z,12.9
2018-01-23T06:01:25.604Z,12.8
2018-01-23T06:02:25.369Z,12.7
2018-01-23T06:03:25.338Z,12.6
2018-01-23T06:04:25.245Z,13
2018-01-23T06:05:25.544Z,13.1
2018-01-23T06:06:25.097Z,12.5
2018-01-23T06:07:25.156Z,12.6
2018-01-23T06:08:24.951Z,12.6
2018-01-23T06:09:24.826Z,12.7
2018-01-23T06:10:24.792Z,12.5
2018-01-23T06:11:25.066Z,13.1
2018-01-23T06:12:24.718Z,12.8
2018-01-23T06:13:24.542Z,12.7
2018-01-23T06:14:24.730Z,12.6
2018-01-23T06:15:24.495Z,12.7
2018-01-23T06:16:24.288Z,12.8
2018-01-23T06:17:24.235Z,13.2
2018-01-23T06:18:24.206Z,13.2
2018-01-23T06:19:24.083Z,13.2
2018-01-23T06:20:23.989Z,13.2
2018-01-23T06:21:24.012Z,13
2018-01-23T06:22:24.119Z,12.9
2018-01-23T06:23:23.761Z,14.2
2018-01-23T06:24:23.661Z,14.6
2018-01-23T06:25:23.720Z,14.3
2018-01-23T06:26:23.575Z,14.4
2018-01-23T06:27:23.448Z,13.9
2018-01-23T06:28:23.359Z,14
2018-01-23T06:29:23.463Z,14.1
2018-01-23T06:30:23.439Z,14.4
2018-01-23T06:31:23.184Z,14.1
2018-01-23T06:32:24.771Z,14
2018-01-23T06:33:24.411Z,14.3
2018-01-23T06:34:24.222Z,14.2
2018-01-23T06:35:24.405Z,14.1
2018-01-23T06:36:24.090Z,14
2018-01-23T06:37:24.105Z,14
2018-01-23T06:38:24.231Z,14.7
2018-01-23T06:39:23.824Z,14.4
2018-01-23T06:40:23.798Z,14.5
2018-01-23T06:41:23.683Z,14.5
2018-01-23T06:42:23.740Z,14.4
2018-01-23T06:43:23.511Z,14
2018-01-23T06:44:23.756Z,14.1
2018-01-23T06:45:23.389Z,14.2
2018-01-23T06:46:23.289Z,14.5
2018-01-23T06:47:23.241Z,14.6
2018-01-23T06:48:23.161Z,14.3
2018-01-23T06:49:23.160Z,14
2018-01-23T06:50:23.120Z,14.6
2018-01-23T06:51:23.062Z,14.2
2018-01-23T06:52:22.945Z,14.5
2018-01-23T06:53:23.147Z,14.6
2018-01-23T06:54:22.861Z,14.2
2018-01-23T06:55:22.834Z,14.2
2018-01-23T06:56:22.487Z,14.4
2018-01-23T06:57:22.860Z,14.3
2018-01-23T06:58:22.449Z,13.9
2018-01-23T06:59:22.292Z,14.4
2018-01-23T07:00:22.305Z,14.2
2018-01-23T07:01:22.197Z,14.1
2018-01-23T07:02:22.066Z,14
2018-01-23T07:03:22.119Z,14.4
2018-01-23T07:04:22.007Z,14.1
2018-01-23T07:05:21.900Z,14.5
2018-01-23T07:06:22.045Z,14.6
2018-01-23T07:07:21.746Z,14.2
2018-01-23T07:08:21.588Z,14
2018-01-23T07:09:21.585Z,14.4
2018-01-23T07:10:21.405Z,14
2018-01-23T07:11:21.363Z,14.6
2018-01-23T07:12:21.409Z,14.1
2018-01-23T07:13:21.486Z,14.2
2018-01-23T07:14:21.163Z,14.4
2018-01-23T07:15:21.036Z,13.9
2018-01-23T07:16:21.232Z,14.3
2018-01-23T07:17:20.872Z,14.4
2018-01-23T07:18:21.037Z,14.3
2018-01-23T07:19:20.839Z,14.4
2018-01-23T07:20:20.603Z,14.7
2018-01-23T07:21:20.579Z,14.7
2018-01-23T07:22:20.463Z,14.2
2018-01-23T07:23:20.518Z,14.5
2018-01-23T07:24:20.312Z,14.4
2018-01-23T07:25:20.522Z,14
2018-01-23T07:26:20.291Z,14
2018-01-23T07:27:20.169Z,14.1
2018-01-23T07:28:20.018Z,14.7
2018-01-23T07:29:19.896Z,14
2018-01-23T07:30:19.871Z,14.4
2018-01-23T07:31:19.885Z,14.6
2018-01-23T07:32:19.777Z,14.3
2018-01-23T07:33:19.716Z,13.9
2018-01-23T07:34:19.629Z,13.8
2018-01-23T07:35:19.424Z,14
2018-01-23T07:36:19.674Z,14.7
2018-01-23T07:37:19.385Z,14.2
2018-01-23T07:38:19.526Z,14
2018-01-23T07:39:19.200Z,14.1
2018-01-23T07:40:19.071Z,14.5
2018-01-23T07:41:18.972Z,14.4
2018-01-23T07:42:19.119Z,14
2018-01-23T07:43:18.834Z,14.3
2018-01-23T07:44:18.736Z,14.7
2018-01-23T07:45:18.639Z,14.7
2018-01-23T07:46:18.723Z,14
2018-01-23T07:47:18.499Z,14.6
2018-01-23T07:48:18.549Z,14.3
2018-01-23T07:49:18.642Z,14.3
2018-01-23T07:50:18.502Z,14.4
2018-01-23T07:51:18.281Z,14.6
2018-01-23T07:52:18.215Z,14.7
2018-01-23T07:53:32.944Z,14.7
2018-01-23T07:54:17.939Z,14.4
2018-01-23T07:55:17.907Z,14.2
2018-01-23T07:56:17.780Z,14.3
2018-01-23T07:57:17.746Z,14.1
2018-01-23T07:58:17.634Z,14.7
2018-01-23T07:59:17.580Z,14
2018-01-23T08:00:17.478Z,13.9
2018-01-23T08:01:17.516Z,14.4
2018-01-23T08:02:17.635Z,14
2018-01-23T08:03:17.410Z,14
2018-01-23T08:05:17.183Z,14.2
2018-01-23T08:06:17.029Z,14.4
2018-01-23T08:07:17.005Z,14.3
2018-01-23T08:08:16.988Z,14.4
2018-01-23T08:10:16.716Z,14.2
2018-01-23T08:11:16.723Z,14.2
2018-01-23T08:12:16.651Z,14.2
2018-01-23T08:13:16.889Z,14.2
2018-01-23T08:14:16.516Z,13.8
2018-01-23T08:15:16.330Z,14.2
2018-01-23T08:16:16.352Z,13.9
2018-01-23T08:17:16.240Z,14.2
2018-01-23T08:18:16.194Z,14.1
2018-01-23T08:19:16.190Z,14
2018-01-23T08:20:32.474Z,14.4
2018-01-23T08:21:15.919Z,14.4
2018-01-23T08:22:15.760Z,14
2018-01-23T08:23:15.701Z,14
2018-01-23T08:24:15.755Z,14
2018-01-23T08:25:15.542Z,14
2018-01-23T08:26:15.544Z,14.2
2018-01-23T08:27:15.384Z,14.6
2018-01-23T08:28:15.481Z,13.9
2018-01-23T08:29:15.274Z,14
2018-01-23T08:30:15.137Z,14.3
2018-01-23T08:31:15.214Z,14.3
2018-01-23T08:32:15.266Z,14
2018-01-23T08:33:44.690Z,14.2
2018-01-23T08:34:15.161Z,14.1
2018-01-23T08:35:14.758Z,14.2
2018-01-23T08:36:14.702Z,14.4
2018-01-23T08:37:14.702Z,14.5
2018-01-23T08:38:14.472Z,14.4
2018-01-23T08:39:14.443Z,14.5
2018-01-23T08:40:14.338Z,14.7
2018-01-23T08:41:14.422Z,14.4
2018-01-23T08:42:14.199Z,14
2018-01-23T08:43:14.228Z,14.5
2018-01-23T08:44:14.019Z,14
2018-01-23T08:45:14.259Z,14.5
2018-01-23T08:46:14.197Z,14.4
2018-01-23T08:47:13.816Z,13.8
2018-01-23T08:48:13.779Z,14.4
2018-01-23T08:49:13.854Z,14.4
2018-01-23T08:50:13.956Z,13.8
2018-01-23T08:51:13.541Z,14
2018-01-23T08:52:13.519Z,14.1
2018-01-23T08:53:13.412Z,14.4
2018-01-23T08:54:13.259Z,14.4
2018-01-23T08:55:13.158Z,14.4
2018-01-23T08:56:13.213Z,14.6
2018-01-23T08:57:13.002Z,14.6
2018-01-23T08:58:12.914Z,13.9
2018-01-23T08:59:12.861Z,14.2
2018-01-23T09:00:27.959Z,14.2
2018-01-23T09:01:42.489Z,14.3
2018-01-23T09:02:12.607Z,14
2018-01-23T09:03:12.559Z,14
2018-01-23T09:04:12.518Z,14.4
2018-01-23T09:05:12.611Z,14.4
2018-01-23T09:06:12.289Z,14.6
2018-01-23T09:07:12.244Z,14.1
2018-01-23T09:08:12.136Z,14.4
2018-01-23T09:09:12.444Z,14.3
2018-01-23T09:10:12.213Z,14.2
2018-01-23T09:11:12.295Z,14.3
2018-01-23T09:12:11.973Z,14.3
2018-01-23T09:13:11.765Z,14.7
2018-01-23T09:14:11.732Z,14.2
2018-01-23T09:15:11.613Z,14.6
2018-01-23T09:16:11.598Z,14.1
2018-01-23T09:17:11.484Z,14.7
2018-01-23T09:18:11.374Z,14
2018-01-23T09:19:11.255Z,14.2
2018-01-23T09:20:11.332Z,13.9
2018-01-23T09:21:11.212Z,14.3
2018-01-23T09:22:11.268Z,14.6
2018-01-23T09:23:11.054Z,14
2018-01-23T09:25:12.966Z,14.5
2018-01-23T09:26:27.754Z,14.5
2018-01-23T09:27:13.169Z,14.6
2018-01-23T09:28:45.952Z,14.7
2018-01-23T09:29:45.806Z,14.2
2018-01-23T09:30:16.468Z,14.1
2018-01-23T09:31:16.020Z,14
2018-01-23T09:32:30.692Z,13.9
2018-01-23T09:33:35.916Z,14.7
2018-01-23T09:34:35.760Z,14
2018-01-23T09:35:20.891Z,14.5
2018-01-23T09:36:20.689Z,14
2018-01-23T09:37:21.092Z,14.1
2018-01-23T09:38:20.514Z,14.2
2018-01-23T09:39:20.519Z,14.6
2018-01-23T09:40:20.351Z,14.5
2018-01-23T09:41:20.312Z,14.1
2018-01-23T09:42:20.213Z,14.1
2018-01-23T09:43:20.250Z,14.4
2018-01-23T09:44:34.939Z,14.6
2018-01-23T09:45:20.123Z,14.1
2018-01-23T09:46:19.971Z,14.1
2018-01-23T09:47:19.854Z,14.2
2018-01-23T09:48:19.739Z,14.6
2018-01-23T09:49:20.276Z,14.5
2018-01-23T09:50:19.953Z,14.5
2018-01-23T09:51:19.521Z,14.5
2018-01-23T09:52:19.547Z,14.5
2018-01-23T09:53:19.955Z,14.4
2018-01-23T09:54:19.302Z,14.7
2018-01-23T09:55:19.481Z,14.1
2018-01-23T09:56:19.151Z,14.2
2018-01-23T09:57:19.016Z,14.5
2018-01-23T09:58:19.089Z,14.6
2018-01-23T09:59:19.228Z,14.3
2018-01-23T10:00:18.824Z,14.1
2018-01-23T10:01:18.858Z,14.4
2018-01-23T10:02:18.641Z,14.6
2018-01-23T10:03:18.823Z,14.3
2018-01-23T10:04:18.693Z,14
2018-01-23T10:05:18.545Z,14.6
2018-01-23T10:06:18.486Z,14
2018-01-23T10:07:18.276Z,14.2
2018-01-23T10:08:18.401Z,14.4
2018-01-23T10:09:18.383Z,14.2
2018-01-23T10:10:18.031Z,14.6
2018-01-23T10:11:18.172Z,14.2
2018-01-23T10:12:17.849Z,14.1
2018-01-23T10:13:17.968Z,13.9
2018-01-23T10:14:17.856Z,14
2018-01-23T10:15:17.647Z,14.6
2018-01-23T10:16:17.517Z,14.5
2018-01-23T10:17:17.471Z,13.8
2018-01-23T10:18:17.451Z,14.6
2018-01-23T10:19:17.373Z,14.6
2018-01-23T10:20:17.244Z,14
2018-01-23T10:21:17.144Z,14.4
2018-01-23T10:22:17.302Z,14.7
2018-01-23T10:23:17.088Z,14.7
2018-01-23T10:24:16.938Z,14.3
2018-01-23T10:25:16.910Z,14.7
2018-01-23T10:26:16.873Z,14
2018-01-23T10:27:16.744Z,13.8
2018-01-23T10:28:16.624Z,14.2
2018-01-23T10:29:16.586Z,14.1
2018-01-23T10:30:16.575Z,14.1
2018-01-23T10:31:16.640Z,14.4
2018-01-23T10:32:16.309Z,14.5
2018-01-23T10:33:16.208Z,14.2
2018-01-23T10:34:16.237Z,14.1
2018-01-23T10:35:16.166Z,14.1
2018-01-23T10:36:15.963Z,14.4
2018-01-23T10:37:30.905Z,14.6
2018-01-23T10:38:15.788Z,14.5
2018-01-23T10:39:15.977Z,14.7
2018-01-23T10:40:15.680Z,14
2018-01-23T10:41:15.553Z,14.4
2018-01-23T10:42:15.623Z,14.6
2018-01-23T10:43:15.697Z,14.1
2018-01-23T10:44:15.347Z,14.3
2018-01-23T10:45:15.386Z,14
2018-01-23T10:46:15.158Z,14
2018-01-23T10:47:15.336Z,14.3
2018-01-23T10:48:15.018Z,14
2018-01-23T10:49:15.338Z,14
2018-01-23T10:50:14.844Z,14.5
2018-01-23T10:51:14.929Z,14.7
2018-01-23T10:52:14.705Z,14.3
2018-01-23T10:53:14.740Z,14.2
2018-01-23T10:54:14.937Z,13.8
2018-01-23T10:55:14.467Z,14
2018-01-23T10:56:14.420Z,14.4
2018-01-23T10:57:14.385Z,14.2
2018-01-23T10:58:14.371Z,14.1
2018-01-23T10:59:14.276Z,14.6
2018-01-23T11:00:14.690Z,14.3
2018-01-23T11:01:14.022Z,13.9
2018-01-23T11:02:13.989Z,14.1
2018-01-23T11:03:13.862Z,14.3
2018-01-23T11:04:13.761Z,14.6
2018-01-23T11:05:13.810Z,14
2018-01-23T11:06:13.604Z,14.1
2018-01-23T11:07:13.556Z,14.5
2018-01-23T11:08:13.428Z,14.1
2018-01-23T11:09:13.461Z,14.7
2018-01-23T11:10:13.398Z,14.5
2018-01-23T11:11:13.235Z,14.4
2018-01-23T11:12:13.330Z,14.4
2018-01-23T11:13:13.288Z,14.6
2018-01-23T11:14:12.958Z,14
2018-01-23T11:15:12.926Z,14.6
2018-01-23T11:16:12.916Z,14.6
2018-01-23T11:17:12.764Z,14
2018-01-23T11:18:12.645Z,14.2
2018-01-23T11:19:12.702Z,14
2018-01-23T11:20:12.523Z,13.9
2018-01-23T11:21:12.525Z,14.6
2018-01-23T11:22:12.374Z,14.4
2018-01-23T11:23:12.414Z,14.7
2018-01-23T11:25:12.184Z,14.3
2018-01-23T11:26:12.134Z,14
2018-01-23T11:27:12.084Z,14.3
2018-01-23T11:28:12.087Z,14.2
2018-01-23T11:29:11.794Z,14.6
2018-01-23T11:30:11.848Z,14.7
2018-01-23T11:31:11.838Z,14.3
2018-01-23T11:32:11.702Z,14.5
2018-01-23T11:33:11.466Z,14.3
2018-01-23T11:34:11.548Z,14.2
2018-01-23T11:35:11.397Z,14.2
2018-01-23T11:36:11.268Z,14.4
2018-01-23T11:37:11.467Z,14
2018-01-23T11:38:11.313Z,14.5
2018-01-23T11:39:11.081Z,14
2018-01-23T11:40:10.963Z,14.7
2018-01-23T11:41:10.926Z,14.2
2018-01-23T11:42:10.805Z,14.1
2018-01-23T11:43:11.095Z,14.1
2018-01-23T11:44:10.748Z,14.6
2018-01-23T11:45:10.633Z,14.4
2018-01-23T11:46:10.617Z,13.8
2018-01-23T11:47:10.415Z,14
2018-01-23T11:48:10.306Z,14.5
2018-01-23T11:49:10.355Z,13.8
2018-01-23T11:50:10.127Z,14
2018-01-23T11:51:10.317Z,14
2018-01-23T11:52:10.059Z,13.8
2018-01-23T11:53:10.037Z,14.4
2018-01-23T11:54:09.948Z,14.6
2018-01-23T11:55:09.752Z,14
2018-01-23T11:56:09.695Z,14.7
2018-01-23T11:57:09.577Z,13.8
2018-01-23T11:58:09.553Z,14.7
2018-01-23T11:59:09.438Z,14.4
2018-01-23T12:00:09.667Z,14.1
2018-01-23T12:01:09.283Z,14.5
2018-01-23T12:02:09.287Z,13.9
2018-01-23T12:03:09.153Z,14.5
2018-01-23T12:04:09.043Z,14.4
2018-01-23T12:05:09.094Z,14.2
2018-01-23T12:06:09.229Z,14.5
2018-01-23T12:07:08.857Z,14.2
2018-01-23T12:08:08.872Z,14.4
2018-01-23T12:09:08.743Z,14.2
2018-01-23T12:10:08.689Z,14.4
2018-01-23T12:11:08.593Z,14.6
2018-01-23T12:12:08.611Z,14.4
2018-01-23T12:13:08.478Z,14
2018-01-23T12:14:08.243Z,14.1
2018-01-23T12:15:08.310Z,14.4
2018-01-23T12:16:08.104Z,14.6
2018-01-23T12:17:08.150Z,14.6
2018-01-23T12:18:07.957Z,14.1
2018-01-23T12:19:08.146Z,14
2018-01-23T12:20:07.884Z,14.4
2018-01-23T12:21:07.838Z,14.2
2018-01-23T12:22:07.612Z,14.2
2018-01-23T12:23:07.580Z,14.5
2018-01-23T12:24:07.732Z,14.1
2018-01-23T12:25:07.647Z,14.3
2018-01-23T12:26:07.318Z,14.6
2018-01-23T12:27:07.458Z,14.1
2018-01-23T12:28:07.376Z,14.2
2018-01-23T12:29:07.177Z,14.4
2018-01-23T12:30:07.025Z,14.7
2018-01-23T12:31:06.922Z,14
2018-01-23T12:32:06.866Z,14.2
2018-01-23T12:33:06.834Z,14.5
2018-01-23T12:34:06.826Z,14.5
2018-01-23T12:36:06.605Z,14.2
2018-01-23T12:37:06.869Z,14
2018-01-23T12:38:06.387Z,14.4
2018-01-23T12:39:06.294Z,14.6
2018-01-23T12:40:06.244Z,14.1
2018-01-23T12:41:06.116Z,14.7
2018-01-23T12:42:06.188Z,14.4
2018-01-23T12:43:05.976Z,14.1
2018-01-23T12:44:05.931Z,14.1
2018-01-23T12:45:06.124Z,14.3
2018-01-23T12:46:05.933Z,14
2018-01-23T12:47:05.896Z,14.6
2018-01-23T12:48:05.779Z,14.2
2018-01-23T12:49:05.816Z,14.1
2018-01-23T12:50:05.527Z,14.5
2018-01-23T12:51:05.381Z,14.2
2018-01-23T12:52:05.538Z,14
2018-01-23T12:53:05.199Z,14.2
2018-01-23T12:54:05.217Z,14.2
2018-01-23T12:55:05.230Z,14.4
2018-01-23T12:56:05.382Z,14.4
2018-01-23T12:57:04.859Z,13.8
2018-01-23T12:58:05.602Z,14
2018-01-23T12:59:05.021Z,13.8
2018-01-23T13:00:04.770Z,13.8
2018-01-23T13:01:04.773Z,14.6
2018-01-23T13:02:04.479Z,14.1
2018-01-23T13:03:04.526Z,14.1
2018-01-23T13:04:04.468Z,14
2018-01-23T13:05:04.449Z,14.3
2018-01-23T13:06:04.299Z,14.4
2018-01-23T13:07:04.189Z,14.3
2018-01-23T13:08:04.044Z,14.6
2018-01-23T13:09:04.025Z,14
2018-01-23T13:10:03.869Z,14.7
2018-01-23T13:11:03.905Z,14.6
2018-01-23T13:12:03.963Z,13.8
2018-01-23T13:13:03.948Z,14.5
2018-01-23T13:14:03.614Z,14
2018-01-23T13:15:03.493Z,14.1
2018-01-23T13:16:03.484Z,14.7
2018-01-23T13:17:03.606Z,14.3
2018-01-23T13:18:03.242Z,14
2018-01-23T13:19:03.148Z,14.1
2018-01-23T13:20:03.091Z,14.5
2018-01-23T13:21:03.089Z,14.4
2018-01-23T13:22:03.048Z,14
2018-01-23T13:23:02.997Z,14
2018-01-23T13:24:03.003Z,14
2018-01-23T13:25:02.687Z,14.5
2018-01-23T13:26:02.681Z,14
2018-01-23T13:27:02.840Z,13.9
2018-01-23T13:28:02.515Z,14.5
2018-01-23T13:29:02.504Z,14.1
2018-01-23T13:30:02.283Z,14.6
2018-01-23T13:31:02.339Z,14.1
2018-01-23T13:32:02.448Z,14
2018-01-23T13:33:02.160Z,14
2018-01-23T13:34:02.074Z,13.9
2018-01-23T13:35:02.227Z,13.8
2018-01-23T13:36:02.166Z,14.1
2018-01-23T13:37:01.759Z,14
2018-01-23T13:38:02.256Z,14.3
2018-01-23T13:39:01.612Z,14.1
2018-01-23T13:40:01.479Z,14.4
2018-01-23T13:41:02.017Z,13.8
2018-01-23T13:42:01.456Z,14
2018-01-23T13:43:01.461Z,14.6
2018-01-23T13:44:01.321Z,13.9
2018-01-23T13:45:01.086Z,14.5
2018-01-23T13:46:01.061Z,14.1
2018-01-23T13:47:00.933Z,14.2
2018-01-23T13:48:00.998Z,14.1
2018-01-23T13:49:00.941Z,14.2
2018-01-23T13:50:01.008Z,14
2018-01-23T13:51:00.770Z,13.8
2018-01-23T13:52:00.534Z,14.3
2018-01-23T13:53:00.605Z,14.7
2018-01-23T13:54:00.493Z,14
2018-01-23T13:55:00.456Z,14
2018-01-23T13:56:00.507Z,13.8
2018-01-23T13:57:00.277Z,14.6
2018-01-23T13:58:00.094Z,14.3
2018-01-23T13:59:00.003Z,14.7
2018-01-23T13:59:59.927Z,14
2018-01-23T14:00:59.862Z,13.4
2018-01-23T14:01:59.751Z,13.5
2018-01-23T14:02:59.832Z,13.5
2018-01-23T14:03:59.591Z,13.6
2018-01-23T14:04:59.656Z,13.3
2018-01-23T14:05:59.466Z,13.5
2018-01-23T14:06:59.447Z,13.1
2018-01-23T14:07:59.438Z,13.1
2018-01-23T14:08:59.214Z,13.1
2018-01-23T14:09:59.448Z,12.9
2018-01-23T14:10:59.063Z,13.6
2018-01-23T14:11:59.107Z,13.6
2018-01-23T14:12:59.085Z,13
2018-01-23T14:13:58.959Z,13.5
2018-01-23T14:14:58.946Z,13.5
2018-01-23T14:15:59.092Z,13.5
2018-01-23T14:16:58.568Z,13.4
2018-01-23T14:17:58.646Z,13.4
2018-01-23T14:18:58.411Z,13.3
2018-01-23T14:19:58.812Z,13.4
2018-01-23T14:20:58.482Z,13
2018-01-23T14:21:58.387Z,13.4
2018-01-23T14:22:58.142Z,13.5
2018-01-23T14:23:58.233Z,12.9
2018-01-23T14:24:58.085Z,13.4
2018-01-23T14:25:57.982Z,12.7
2018-01-23T14:26:57.835Z,13.3
2018-01-23T14:27:57.792Z,13.4
2018-01-23T14:28:57.737Z,12.9
2018-01-23T14:29:57.674Z,13
2018-01-23T14:30:57.508Z,13.3
2018-01-23T14:31:57.506Z,13.3
2018-01-23T14:32:57.564Z,12.7
2018-01-23T14:33:57.320Z,13.3
2018-01-23T14:34:57.315Z,13.1
2018-01-23T14:35:57.098Z,13.1
2018-01-23T14:36:57.037Z,13.2
2018-01-23T14:37:56.975Z,13
2018-01-23T14:38:56.872Z,13.2
2018-01-23T14:39:56.960Z,13.1
2018-01-23T14:40:56.749Z,13
2018-01-23T14:41:56.918Z,13.1
2018-01-23T14:42:56.810Z,12.8
2018-01-23T14:43:56.778Z,12.8
2018-01-23T14:44:56.568Z,13.2
2018-01-23T14:45:56.488Z,12.5
2018-01-23T14:46:56.475Z,13.1
2018-01-23T14:47:56.270Z,13.1
2018-01-23T14:48:56.218Z,12.9
2018-01-23T14:49:56.196Z,12.6
2018-01-23T14:50:56.252Z,13
2018-01-23T14:51:56.086Z,13
2018-01-23T14:52:56.046Z,12.9
2018-01-23T14:53:55.963Z,13.1
2018-01-23T14:54:55.766Z,13
2018-01-23T14:55:56.186Z,13
2018-01-23T14:56:55.779Z,13.2
2018-01-23T14:57:55.731Z,12.7
2018-01-23T14:58:55.633Z,12.7
2018-01-23T14:59:55.435Z,12.6
2018-01-23T15:00:55.776Z,12.6
2018-01-23T15:01:55.314Z,12.6
2018-01-23T15:02:55.207Z,12.9
2018-01-23T15:03:55.177Z,12.9
2018-01-23T15:05:06.008Z,13.1
2018-01-23T15:06:06.021Z,12.9
2018-01-23T15:07:05.763Z,12.6
2018-01-23T15:08:06.073Z,12.9
2018-01-23T15:09:05.627Z,13.1
2018-01-23T15:10:05.745Z,12.6
2018-01-23T15:11:05.600Z,13
2018-01-23T15:12:05.749Z,13.1
2018-01-23T15:13:05.220Z,13.1
2018-01-23T15:14:05.169Z,12.6
2018-01-23T15:15:05.346Z,13.2
2018-01-23T15:16:05.115Z,13.1
2018-01-23T15:17:04.999Z,13
2018-01-23T15:18:04.945Z,12.5
2018-01-23T15:19:05.074Z,12.8
2018-01-23T15:20:04.748Z,12.9
2018-01-23T15:21:04.627Z,12.8
2018-01-23T15:22:04.496Z,12.9
2018-01-23T15:23:04.468Z,12.6
2018-01-23T15:24:04.356Z,13
2018-01-23T15:25:04.407Z,12.6
2018-01-23T15:26:04.304Z,13
2018-01-23T15:27:04.258Z,12.7
2018-01-23T15:28:04.116Z,13.1
2018-01-23T15:29:04.283Z,13.1
2018-01-23T15:30:04.239Z,12.5
2018-01-23T15:31:04.052Z,12.5
2018-01-23T15:32:03.827Z,13.1
2018-01-23T15:33:03.662Z,13.2